Time;durP1;ratioP1;P1;durP2;ratioP2;P2;SDS_P1;SDS_P2;PMS_P1;PMS_P2;Temp;Humidity;BMP_temperature;BMP_pressure;BME280_temperature;BME280_humidity;BME280_pressure;Samples;Min_cycle;Max_cycle;Signal;HPM_P1;HPM_P2
2023/04/08 00:00:49;;;;;;;40.30;20.35;;;;;;;5.63;100.00;97596.16;5072453;28;20056;-76
2023/04/08 00:03:15;;;;;;;38.20;20.98;;;;;;;5.50;100.00;97602.03;5055517;28;20046;-75
2023/04/08 00:05:40;;;;;;;46.22;22.75;;;;;;;5.44;100.00;97589.91;5072382;28;20020;-76
2023/04/08 00:08:06;;;;;;;41.95;21.70;;;;;;;5.46;100.00;97609.25;5072293;28;20097;-76
2023/04/08 00:10:32;;;;;;;48.47;23.27;;;;;;;5.44;100.00;97605.81;5072505;28;20487;-76
2023/04/08 00:12:59;;;;;;;43.10;22.63;;;;;;;5.38;100.00;97600.75;5055666;28;20054;-76
2023/04/08 00:15:25;;;;;;;41.38;22.05;;;;;;;5.33;100.00;97608.03;5075552;28;20441;-75
2023/04/08 00:17:53;;;;;;;37.97;19.50;;;;;;;5.34;100.00;97609.75;5059376;28;20028;-76
2023/04/08 00:20:19;;;;;;;38.20;17.58;;;;;;;5.32;100.00;97607.16;5059437;28;20020;-75
2023/04/08 00:22:44;;;;;;;33.17;17.77;;;;;;;5.34;100.00;97605.31;5059344;28;20031;-75
2023/04/08 00:25:10;;;;;;;37.83;18.50;;;;;;;5.34;100.00;97607.09;5075950;28;20035;-75
2023/04/08 00:27:35;;;;;;;31.80;17.58;;;;;;;5.36;100.00;97605.25;5059459;28;20020;-75
2023/04/08 00:30:02;;;;;;;35.75;19.45;;;;;;;5.37;100.00;97609.63;5075934;28;20020;-76
2023/04/08 00:32:28;;;;;;;32.97;17.98;;;;;;;5.36;100.00;97607.91;5075895;28;20027;-75
2023/04/08 00:34:53;;;;;;;35.85;16.98;;;;;;;5.32;100.00;97606.31;5075807;28;20107;-75
2023/04/08 00:37:20;;;;;;;31.38;17.30;;;;;;;5.23;100.00;97611.97;5058795;28;20028;-76
2023/04/08 00:39:45;;;;;;;35.17;17.23;;;;;;;5.24;100.00;97609.25;5076034;28;20019;-75
2023/04/08 00:42:11;;;;;;;36.25;18.45;;;;;;;5.14;100.00;97613.19;5075888;28;20491;-76
2023/04/08 00:44:36;;;;;;;33.40;17.98;;;;;;;5.17;100.00;97612.22;5092474;28;20022;-76
2023/04/08 00:47:03;;;;;;;34.08;18.25;;;;;;;5.11;100.00;97621.25;5087298;28;20081;-76
2023/04/08 00:49:30;;;;;;;34.10;18.10;;;;;;;5.23;100.00;97630.53;5075489;28;20020;-76
2023/04/08 00:51:56;;;;;;;36.17;18.50;;;;;;;5.25;100.00;97631.34;5093753;28;20434;-75
2023/04/08 00:54:21;;;;;;;41.30;19.17;;;;;;;5.22;100.00;97621.72;5080128;28;20020;-76
2023/04/08 00:56:47;;;;;;;46.53;21.17;;;;;;;5.14;100.00;97617.63;5075339;28;20099;-76
2023/04/08 00:59:13;;;;;;;43.00;21.10;;;;;;;5.23;100.00;97614.63;5092201;28;20020;-75
2023/04/08 01:02:05;;;;;;;33.70;17.67;;;;;;;5.21;100.00;97603.22;5092048;28;20020;-75
2023/04/08 01:04:34;;;;;;;;;;;;;;;5.19;100.00;97605.06;5094077;28;20467;-76
2023/04/08 01:07:12;;;;;;;28.65;14.23;;;;;;;5.08;100.00;97597.53;5090855;28;20359;-76
2023/04/08 01:09:46;;;;;;;30.50;16.50;;;;;;;5.08;100.00;97594.00;5083441;28;20031;-75
2023/04/08 01:12:14;;;;;;;29.00;14.98;;;;;;;5.05;100.00;97586.16;5078086;28;20106;-75
2023/04/08 01:14:43;;;;;;;30.02;16.50;;;;;;;5.19;100.00;97605.06;5090300;28;20026;-74
2023/04/08 01:17:08;;;;;;;33.17;16.58;;;;;;;5.24;100.00;97608.38;5091787;28;20313;-74
2023/04/08 01:19:37;;;;;;;31.75;16.20;;;;;;;5.15;100.00;97603.44;5074977;28;20053;-75
2023/04/08 01:22:27;;;;;;;31.52;15.50;;;;;;;5.26;100.00;97617.16;5092079;28;20028;-76
2023/04/08 01:25:02;;;;;;;38.13;17.67;;;;;;;5.23;100.00;97607.53;5074388;28;20443;-75
2023/04/08 01:27:31;;;;;;;34.72;17.33;;;;;;;5.29;100.00;97609.09;5091922;28;20024;-75
2023/04/08 01:29:57;;;;;;;33.95;18.00;;;;;;;5.25;100.00;97605.69;5074866;28;20380;-74
2023/04/08 01:32:24;;;;;;;34.55;17.77;;;;;;;5.30;100.00;97611.66;5070890;28;20036;-75
2023/04/08 01:34:50;;;;;;;34.53;17.77;;;;;;;5.41;100.00;97627.16;5057790;28;20063;-75
2023/04/08 01:37:16;;;;;;;35.28;18.92;;;;;;;5.37;100.00;97615.81;5057879;28;20066;-74
2023/04/08 01:39:41;;;;;;;33.95;18.55;;;;;;;5.45;100.00;97634.91;5057784;28;20036;-74
2023/04/08 01:42:08;;;;;;;33.05;17.33;;;;;;;5.45;100.00;97631.38;5081168;28;20049;-75
2023/04/08 01:44:35;;;;;;;27.52;15.93;;;;;;;5.45;100.00;97634.03;5054360;28;20064;-75
2023/04/08 01:47:01;;;;;;;34.10;16.27;;;;;;;5.44;100.00;97632.34;5072547;28;20147;-74
2023/04/08 01:49:26;;;;;;;30.25;16.42;;;;;;;5.37;100.00;97620.25;5054419;28;20115;-75
2023/04/08 01:51:52;;;;;;;30.40;15.75;;;;;;;5.29;100.00;97627.66;5054184;28;20079;-75
2023/04/08 01:54:18;;;;;;;34.90;16.33;;;;;;;5.41;100.00;97632.47;5054427;28;20357;-75
2023/04/08 01:56:45;;;;;;;32.70;16.60;;;;;;;5.31;100.00;97631.09;5054215;28;20477;-75
2023/04/08 01:59:13;;;;;;;30.55;16.70;;;;;;;5.30;100.00;97640.84;5054566;28;20085;-75
2023/04/08 02:01:39;;;;;;;30.50;15.45;;;;;;;5.26;100.00;97638.38;5054162;28;20036;-75
2023/04/08 02:04:04;;;;;;;34.08;17.00;;;;;;;5.27;100.00;97642.72;5037438;28;20484;-75
2023/04/08 02:06:31;;;;;;;31.75;16.15;;;;;;;5.31;100.00;97649.66;5054100;28;20103;-75
2023/04/08 02:08:56;;;;;;;28.52;15.73;;;;;;;5.27;100.00;97648.03;5053738;28;20086;-75
2023/04/08 02:11:23;;;;;;;29.70;16.58;;;;;;;5.30;100.00;97646.13;5054078;28;20129;-75
2023/04/08 02:13:49;;;;;;;27.95;15.05;;;;;;;5.24;100.00;97643.72;5053755;28;20410;-76
2023/04/08 02:16:22;;;;;;;29.80;15.88;;;;;;;5.21;100.00;97656.22;5053779;28;20038;-76
2023/04/08 02:18:55;;;;;;;27.45;15.38;;;;;;;5.13;100.00;97647.72;5036993;28;20025;-75
2023/04/08 02:21:22;;;;;;;33.15;15.68;;;;;;;5.20;100.00;97655.38;5037234;28;20036;-74
2023/04/08 02:23:50;;;;;;;31.77;16.85;;;;;;;5.18;100.00;97651.91;5053567;28;20446;-75
2023/04/08 02:26:17;;;;;;;31.02;16.55;;;;;;;5.24;100.00;97645.50;5053899;28;20081;-75
2023/04/08 02:28:43;;;;;;;32.63;16.10;;;;;;;5.18;100.00;97641.31;5037079;28;20024;-75
2023/04/08 02:31:13;;;;;;;32.30;17.60;;;;;;;5.17;100.00;97662.59;5037054;28;20093;-75
2023/04/08 02:33:39;;;;;;;32.28;15.40;;;;;;;5.22;100.00;97657.97;5037198;28;20028;-75
2023/04/08 02:36:05;;;;;;;34.58;16.50;;;;;;;5.19;100.00;97644.84;5053432;28;20028;-75
2023/04/08 02:38:31;;;;;;;34.13;17.35;;;;;;;5.23;100.00;97665.00;5036092;28;20432;-75
2023/04/08 02:40:57;;;;;;;30.05;16.10;;;;;;;5.22;100.00;97653.53;5053215;28;20028;-75
2023/04/08 02:43:30;;;;;;;32.45;16.08;;;;;;;5.24;100.00;97642.84;5060566;28;20415;-75
2023/04/08 02:45:56;;;;;;;32.53;15.25;;;;;;;5.29;100.00;97664.78;5089981;28;20391;-75
2023/04/08 02:48:22;;;;;;;27.38;15.90;;;;;;;5.29;100.00;97648.88;5049912;28;20491;-75
2023/04/08 02:50:47;;;;;;;32.78;16.70;;;;;;;5.31;100.00;97652.31;5069477;28;20027;-74
2023/04/08 02:53:13;;;;;;;33.05;17.42;;;;;;;5.29;100.00;97654.16;5073309;28;20035;-74
2023/04/08 02:55:38;;;;;;;38.08;19.00;;;;;;;5.34;100.00;97649.53;5090224;28;20490;-74
2023/04/08 02:58:04;;;;;;;36.25;17.98;;;;;;;5.33;100.00;97656.63;5089911;28;20153;-76
2023/04/08 03:00:30;;;;;;;36.75;19.05;;;;;;;5.32;100.00;97654.03;5056327;28;20123;-75
2023/04/08 03:02:55;;;;;;;41.00;19.77;;;;;;;5.30;100.00;97656.75;5072776;28;20028;-75
2023/04/08 03:05:21;;;;;;;40.13;21.05;;;;;;;5.37;100.00;97662.66;5072886;28;20028;-75
2023/04/08 03:07:47;;;;;;;43.08;20.98;;;;;;;5.34;100.00;97654.84;5056240;28;20069;-75
2023/04/08 03:10:12;;;;;;;41.40;21.10;;;;;;;5.36;100.00;97655.63;5072660;28;20027;-74
2023/04/08 03:12:38;;;;;;;35.42;18.58;;;;;;;5.33;100.00;97655.75;5056306;28;20518;-76
2023/04/08 03:15:05;;;;;;;35.85;18.15;;;;;;;5.26;100.00;97651.63;5087542;28;20111;-75
2023/04/08 03:17:33;;;;;;;38.10;18.05;;;;;;;5.31;100.00;97657.59;5091165;28;20064;-75
2023/04/08 03:19:59;;;;;;;43.90;20.75;;;;;;;5.29;100.00;97655.00;5089940;28;20407;-75
2023/04/08 03:22:24;;;;;;;41.53;19.88;;;;;;;5.19;100.00;97653.66;5090632;28;20407;-74
2023/04/08 03:24:50;;;;;;;36.40;18.98;;;;;;;5.21;100.00;97653.59;5072748;28;20038;-75
2023/04/08 03:27:15;;;;;;;33.50;17.85;;;;;;;5.13;100.00;97658.34;5072514;28;20031;-75
2023/04/08 03:29:41;;;;;;;36.40;18.17;;;;;;;5.17;100.00;97665.25;5089742;28;20028;-75
2023/04/08 03:32:06;;;;;;;36.20;18.48;;;;;;;5.14;100.00;97657.38;5089391;28;20028;-75
2023/04/08 03:34:35;;;;;;;37.42;18.73;;;;;;;5.13;100.00;97658.34;5089654;28;20035;-75
2023/04/08 03:37:01;;;;;;;36.97;18.02;;;;;;;5.17;100.00;97663.44;5072646;28;20036;-76
2023/04/08 03:39:26;;;;;;;34.90;18.90;;;;;;;5.19;100.00;97666.03;5064889;28;20388;-75
2023/04/08 03:41:52;;;;;;;34.00;17.63;;;;;;;5.29;100.00;97670.06;5089403;28;20024;-74
2023/04/08 03:44:17;;;;;;;33.67;18.23;;;;;;;5.18;100.00;97670.47;5052424;28;20067;-75
2023/04/08 03:46:43;;;;;;;35.45;18.35;;;;;;;5.25;100.00;97671.97;5052837;28;20032;-75
2023/04/08 03:49:08;;;;;;;34.47;18.58;;;;;;;5.29;100.00;97672.72;5038283;28;20037;-75
2023/04/08 03:51:34;;;;;;;34.30;18.08;;;;;;;5.29;100.00;97670.06;5056435;28;20094;-76
2023/04/08 03:53:59;;;;;;;33.80;17.08;;;;;;;5.22;100.00;97666.78;5056467;28;20020;-75
2023/04/08 03:56:25;;;;;;;34.28;18.38;;;;;;;5.26;100.00;97660.44;5056624;28;20035;-74
2023/04/08 03:58:50;;;;;;;40.15;20.42;;;;;;;5.27;100.00;97666.59;5056586;28;20078;-75
2023/04/08 04:01:16;;;;;;;37.80;18.02;;;;;;;5.29;100.00;97667.44;5056248;28;20036;-76
2023/04/08 04:03:41;;;;;;;56.63;26.08;;;;;;;5.27;100.00;97675.44;5039904;28;20024;-75
2023/04/08 04:06:07;;;;;;;38.53;18.75;;;;;;;5.33;100.00;97679.63;5056583;28;20032;-75
2023/04/08 04:08:32;;;;;;;36.03;19.23;;;;;;;5.24;100.00;97672.03;5056044;28;20040;-74
2023/04/08 04:10:59;;;;;;;38.40;19.35;;;;;;;5.28;100.00;97676.28;5039721;28;20064;-75
2023/04/08 04:13:24;;;;;;;84.88;32.25;;;;;;;5.31;100.00;97673.53;5056025;28;20024;-75
2023/04/08 04:15:50;;;;;;;45.25;22.50;;;;;;;5.27;100.00;97667.47;5056293;28;20388;-75
2023/04/08 04:18:15;;;;;;;54.33;22.60;;;;;;;5.28;100.00;97677.16;5056413;28;20419;-74
2023/04/08 04:20:41;;;;;;;60.67;27.85;;;;;;;5.22;100.00;97673.88;5039524;28;20052;-78
2023/04/08 04:23:07;;;;;;;62.50;30.98;;;;;;;5.20;100.00;97678.38;5056496;28;20442;-74
2023/04/08 04:25:33;;;;;;;56.78;27.80;;;;;;;5.29;100.00;97683.34;5073518;28;20078;-72
2023/04/08 04:27:59;;;;;;;50.35;25.33;;;;;;;5.28;100.00;97687.78;5039301;28;20086;-73
2023/04/08 04:30:24;;;;;;;39.22;19.52;;;;;;;5.36;100.00;97688.31;5055630;28;20036;-74
2023/04/08 04:32:50;;;;;;;39.30;19.75;;;;;;;5.41;100.00;97683.69;5055980;28;20028;-74
2023/04/08 04:35:15;;;;;;;42.17;22.83;;;;;;;5.45;100.00;97674.69;5073774;28;20038;-74
2023/04/08 04:37:41;;;;;;;34.67;19.23;;;;;;;5.54;100.00;97670.81;5073464;28;20028;-73
2023/04/08 04:40:07;;;;;;;36.67;18.77;;;;;;;5.61;100.00;97674.94;5038960;28;20046;-73
2023/04/08 04:42:33;;;;;;;34.90;18.98;;;;;;;5.54;100.00;97670.81;5048683;28;20036;-73
2023/04/08 04:45:05;;;;;;;33.40;17.92;;;;;;;5.60;100.00;97675.03;5068858;28;20032;-74
2023/04/08 04:47:31;;;;;;;36.47;18.23;;;;;;;5.61;100.00;97674.09;5075046;28;20031;-73
2023/04/08 04:49:57;;;;;;;33.72;18.23;;;;;;;5.59;100.00;97679.47;5091549;28;20032;-74
2023/04/08 04:52:30;;;;;;;35.97;17.67;;;;;;;5.54;100.00;97670.81;5064967;28;20024;-73
2023/04/08 04:54:57;;;;;;;41.38;19.58;;;;;;;5.55;100.00;97666.38;5092517;28;20066;-74
2023/04/08 04:57:22;;;;;;;38.25;19.90;;;;;;;5.57;100.00;97676.00;5091918;28;20031;-73
2023/04/08 04:59:48;;;;;;;40.22;21.17;;;;;;;5.55;100.00;97671.69;5074526;28;20502;-74
2023/04/08 05:02:13;;;;;;;48.92;21.67;;;;;;;5.55;100.00;97677.84;5093332;28;20028;-72
2023/04/08 05:04:39;;;;;;;49.17;23.90;;;;;;;5.71;100.00;97686.06;5091820;28;20065;-74
2023/04/08 05:07:04;;;;;;;41.25;21.60;;;;;;;5.71;100.00;97689.59;5063563;28;20047;-74
2023/04/08 05:09:30;;;;;;;39.97;20.23;;;;;;;5.75;100.00;97688.50;5058040;28;20380;-75
2023/04/08 05:11:56;;;;;;;37.15;18.73;;;;;;;5.79;100.00;97690.13;5060056;28;20031;-75
2023/04/08 05:14:21;;;;;;;40.63;18.48;;;;;;;5.90;100.00;97690.59;5092028;28;20032;-74
2023/04/08 05:16:47;;;;;;;39.80;19.45;;;;;;;5.93;100.00;97692.25;5074907;28;20028;-77
2023/04/08 05:19:13;;;;;;;38.72;18.23;;;;;;;5.91;100.00;97689.66;5070764;28;20073;-76
2023/04/08 05:21:38;;;;;;;41.83;17.58;;;;;;;5.90;100.00;97689.75;5075128;28;20434;-74
2023/04/08 05:24:04;;;;;;;31.08;17.35;;;;;;;5.94;100.00;97692.19;5057985;28;20543;-76
2023/04/08 05:26:29;;;;;;;41.05;18.67;;;;;;;5.84;100.00;97684.66;5076789;28;20424;-75
2023/04/08 05:28:55;;;;;;;44.45;19.77;;;;;;;5.85;100.00;97687.25;5057979;28;20031;-77
2023/04/08 05:31:20;;;;;;;34.75;18.00;;;;;;;5.88;100.00;97700.41;5075438;28;20028;-75
2023/04/08 05:33:46;;;;;;;41.88;19.13;;;;;;;5.94;100.00;97696.63;5090411;28;20380;-77
2023/04/08 05:36:13;;;;;;;35.00;18.60;;;;;;;5.96;100.00;97686.81;5055958;28;20039;-82
2023/04/08 05:38:50;;;;;;;37.65;18.83;;;;;;;6.03;100.00;97680.31;5061907;28;20245;-80
2023/04/08 05:41:21;;;;;;;34.40;17.70;;;;;;;6.09;100.00;97666.78;5067040;28;20063;-79
2023/04/08 05:43:46;;;;;;;38.00;18.45;;;;;;;6.19;100.00;97672.56;5086413;28;20040;-77
2023/04/08 05:46:12;;;;;;;32.58;17.35;;;;;;;6.26;100.00;97684.66;5056465;28;20034;-79
2023/04/08 05:48:37;;;;;;;32.05;17.35;;;;;;;6.48;100.00;97693.44;5090153;28;20128;-75
2023/04/08 05:51:03;;;;;;;35.65;18.77;;;;;;;6.63;100.00;97670.66;5089779;28;20043;-74
2023/04/08 05:53:28;;;;;;;35.40;19.10;;;;;;;6.77;100.00;97668.22;5077925;28;20036;-75
2023/04/08 05:55:54;;;;;;;38.05;17.55;;;;;;;6.89;100.00;97662.38;5071960;28;20375;-76
2023/04/08 05:58:33;;;;;;;33.75;17.90;;;;;;;6.98;100.00;97656.63;5071936;28;20101;-74
2023/04/08 06:00:58;;;;;;;45.00;22.83;;;;;;;7.18;100.00;97653.03;5073815;28;20093;-75
2023/04/08 06:03:24;;;;;;;120.50;60.05;;;;;;;7.22;100.00;97641.34;5062693;28;20107;-76
2023/04/08 06:05:49;;;;;;;65.35;32.55;;;;;;;7.42;100.00;97641.22;5068914;28;20482;-75
2023/04/08 06:08:15;;;;;;;36.75;18.95;;;;;;;7.61;100.00;97624.31;5087935;28;20388;-76
2023/04/08 06:10:48;;;;;;;34.63;19.02;;;;;;;7.87;100.00;97617.72;5071544;28;20020;-76
2023/04/08 06:13:14;;;;;;;38.47;17.77;;;;;;;7.93;100.00;97621.84;5062538;28;20024;-76
2023/04/08 06:15:40;;;;;;;42.38;21.73;;;;;;;8.41;100.00;97630.03;5076787;28;20020;-76
2023/04/08 06:18:05;;;;;;;72.07;37.65;;;;;;;8.93;100.00;97622.78;5065197;28;20054;-75
2023/04/08 06:20:31;;;;;;;46.45;22.50;;;;;;;9.39;100.00;97605.09;5087916;28;20419;-75
2023/04/08 06:22:56;;;;;;;39.03;22.50;;;;;;;9.89;100.00;97604.88;5087614;28;20055;-76
2023/04/08 06:25:22;;;;;;;44.13;22.65;;;;;;;10.92;97.22;97609.31;5072381;28;20124;-76
2023/04/08 06:27:48;;;;;;;81.53;41.20;;;;;;;12.46;86.20;97598.25;5063807;28;20032;-76
2023/04/08 06:30:13;;;;;;;147.55;71.32;;;;;;;13.78;73.07;97576.16;5054021;28;20035;-74
2023/04/08 06:32:39;;;;;;;48.15;25.65;;;;;;;14.30;66.94;97561.50;5070698;28;20030;-75
2023/04/08 06:35:06;;;;;;;57.35;31.05;;;;;;;14.20;63.99;97544.34;5073211;28;20074;-81
2023/04/08 06:37:33;;;;;;;40.25;20.02;;;;;;;14.35;61.24;97546.75;5063219;28;20518;-80
2023/04/08 06:40:04;;;;;;;40.72;21.33;;;;;;;13.53;62.30;97523.38;5058731;28;20116;-74
2023/04/08 06:42:29;;;;;;;59.40;28.42;;;;;;;13.29;64.46;97538.63;5073192;28;20055;-75
2023/04/08 06:45:00;;;;;;;42.80;22.48;;;;;;;13.16;64.85;97551.25;5067063;28;20035;-75
2023/04/08 06:47:26;;;;;;;37.63;22.35;;;;;;;13.04;65.96;97542.19;5078673;28;20535;-75
2023/04/08 06:49:51;;;;;;;41.35;23.15;;;;;;;12.86;68.22;97548.00;5065758;28;20031;-75
2023/04/08 06:52:26;;;;;;;37.08;20.73;;;;;;;12.32;71.97;97550.06;5079790;28;20020;-74
2023/04/08 06:54:52;;;;;;;42.53;23.67;;;;;;;11.50;80.80;97560.09;5067089;28;20153;-74
2023/04/08 06:57:18;;;;;;;38.15;20.20;;;;;;;10.93;83.12;97560.19;5070254;28;20510;-74
2023/04/08 06:59:43;;;;;;;30.30;17.80;;;;;;;10.72;87.52;97582.94;5050019;28;20078;-75
2023/04/08 07:02:12;;;;;;;31.20;17.40;;;;;;;10.70;87.85;97587.53;5088203;28;20020;-75
2023/04/08 07:04:40;;;;;;;32.47;17.52;;;;;;;10.79;87.36;97570.91;5076693;28;20024;-74
2023/04/08 07:07:08;;;;;;;29.40;16.35;;;;;;;10.76;88.67;97579.13;5072923;28;20141;-74
2023/04/08 07:09:35;;;;;;;31.35;17.77;;;;;;;10.79;88.61;97584.28;5069089;28;20465;-75
2023/04/08 07:12:02;;;;;;;48.13;18.90;;;;;;;10.70;87.95;97580.38;5086944;28;20027;-75
2023/04/08 07:14:28;;;;;;;43.28;25.80;;;;;;;10.49;91.36;97583.50;5077442;28;20019;-75
2023/04/08 07:16:55;;;;;;;31.35;17.50;;;;;;;10.67;90.52;97587.72;5069432;28;20475;-76
2023/04/08 07:19:23;;;;;;;31.23;18.23;;;;;;;10.39;91.62;97593.91;5088020;28;20406;-75
2023/04/08 07:21:55;;;;;;;44.20;24.27;;;;;;;10.91;89.24;97580.84;5088354;28;20031;-80
2023/04/08 07:24:27;;;;;;;30.83;17.80;;;;;;;11.02;86.48;97582.84;5065796;28;20032;-78
2023/04/08 07:26:55;;;;;;;36.30;19.85;;;;;;;11.34;87.11;97592.38;5082642;28;20039;-78
2023/04/08 07:29:20;;;;;;;30.52;17.60;;;;;;;11.78;86.52;97595.69;5064159;28;20040;-75
2023/04/08 07:31:46;;;;;;;31.25;18.23;;;;;;;11.92;84.34;97595.66;5062712;28;20399;-75
2023/04/08 07:34:11;;;;;;;29.58;18.08;;;;;;;12.23;78.20;97578.38;5076521;28;20032;-75
2023/04/08 07:36:37;;;;;;;35.08;19.00;;;;;;;12.17;77.91;97575.25;5069916;28;20040;-77
2023/04/08 07:39:05;;;;;;;28.45;16.95;;;;;;;11.82;80.16;97577.59;5056371;28;20030;-76
2023/04/08 07:41:30;;;;;;;25.08;15.60;;;;;;;11.76;80.59;97581.56;5086431;28;20058;-76
2023/04/08 07:43:56;;;;;;;26.38;14.95;;;;;;;11.14;80.20;97569.53;5076551;28;20105;-75
2023/04/08 07:46:23;;;;;;;24.52;14.27;;;;;;;11.06;83.67;97587.91;5069814;28;20051;-77
2023/04/08 07:48:49;;;;;;;24.42;14.73;;;;;;;10.81;86.47;97587.72;5049967;28;20028;-75
2023/04/08 07:51:14;;;;;;;22.80;14.48;;;;;;;11.04;86.06;97599.69;5047641;28;20427;-75
2023/04/08 07:53:40;;;;;;;21.67;12.52;;;;;;;11.38;82.20;97593.91;5088427;28;20026;-76
2023/04/08 07:56:14;;;;;;;23.65;13.25;;;;;;;11.36;81.31;97588.63;5070035;28;20086;-75
2023/04/08 07:58:40;;;;;;;28.67;20.27;;;;;;;11.30;79.77;97583.66;5068434;28;20118;-76
2023/04/08 08:01:16;;;;;;;24.88;13.20;;;;;;;11.47;78.20;97595.13;5070084;28;20031;-76
2023/04/08 08:03:42;;;;;;;24.70;14.55;;;;;;;11.94;74.72;97588.38;5069556;28;20035;-76
2023/04/08 08:06:07;;;;;;;19.90;12.68;;;;;;;11.95;72.29;97587.41;5070087;28;20484;-76
2023/04/08 08:08:35;;;;;;;24.40;13.38;;;;;;;12.04;73.27;97591.31;5069371;28;20089;-76
2023/04/08 08:11:00;;;;;;;20.20;12.70;;;;;;;12.55;71.20;97599.47;5053402;28;20020;-76
2023/04/08 08:13:26;;;;;;;26.92;14.10;;;;;;;13.04;67.63;97587.00;5052867;28;20510;-77
2023/04/08 08:15:52;;;;;;;20.15;12.68;;;;;;;13.29;65.74;97580.78;5052469;28;20101;-76
2023/04/08 08:18:18;;;;;;;20.75;13.18;;;;;;;13.12;66.26;97578.41;5053097;28;20583;-76
2023/04/08 08:20:43;;;;;;;20.45;13.07;;;;;;;13.18;66.98;97586.91;5087384;28;20126;-76
2023/04/08 08:23:09;;;;;;;26.20;13.40;;;;;;;13.55;65.41;97585.97;5087909;28;20032;-77
2023/04/08 08:25:34;;;;;;;27.30;14.82;;;;;;;13.57;66.89;97588.50;5069458;28;20035;-77
2023/04/08 08:28:00;;;;;;;25.38;15.32;;;;;;;13.15;68.51;97595.19;5049609;28;20035;-75
2023/04/08 08:30:25;;;;;;;24.67;13.48;;;;;;;12.62;72.11;97590.00;5049880;28;20118;-77
2023/04/08 08:32:51;;;;;;;18.30;12.98;;;;;;;12.75;74.57;97610.53;5052811;28;20053;-76
2023/04/08 08:35:17;;;;;;;22.58;12.80;;;;;;;12.99;74.14;97600.75;5070556;28;20038;-77
2023/04/08 08:37:42;;;;;;;26.25;11.95;;;;;;;13.43;72.00;97613.72;5055784;28;20517;-75
2023/04/08 08:40:08;;;;;;;20.50;13.38;;;;;;;14.05;67.39;97603.72;5053281;28;20032;-75
2023/04/08 08:42:34;;;;;;;21.75;13.70;;;;;;;13.92;66.23;97600.22;5070627;28;20051;-76
2023/04/08 08:45:02;;;;;;;17.90;11.25;;;;;;;13.99;64.19;97595.25;5091054;28;20479;-77
2023/04/08 08:47:29;;;;;;;15.98;10.45;;;;;;;14.38;61.28;97592.25;5056583;28;20028;-75
2023/04/08 08:49:55;;;;;;;19.27;10.80;;;;;;;14.83;58.28;97581.59;5056097;28;20107;-75
2023/04/08 08:52:20;;;;;;;53.03;12.77;;;;;;;14.97;56.69;97567.91;5072990;28;20119;-77
2023/04/08 08:54:46;;;;;;;21.92;11.15;;;;;;;14.94;56.69;97576.22;5091018;28;20024;-78
2023/04/08 08:57:19;;;;;;;17.27;9.93;;;;;;;14.78;55.54;97563.09;5055771;28;20032;-77
2023/04/08 08:59:46;;;;;;;17.17;9.48;;;;;;;15.18;54.93;97571.59;5072895;28;20024;-77
2023/04/08 09:02:26;;;;;;;14.90;9.85;;;;;;;15.17;54.57;97569.84;5055079;28;20024;-77
2023/04/08 09:05:10;;;;;;;15.60;10.55;;;;;;;14.83;55.09;97554.66;5072368;28;20061;-77
2023/04/08 09:07:39;;;;;;;17.60;10.45;;;;;;;14.99;54.87;97560.53;5072372;28;20120;-76
2023/04/08 09:12:57;;;;;;;47.67;29.17;;;;;;;15.16;54.20;97558.22;5047552;28;20086;-78
2023/04/08 09:15:23;;;;;;;56.60;31.33;;;;;;;15.17;54.38;97565.31;5014704;28;20036;-77
2023/04/08 09:17:48;;;;;;;16.00;10.07;;;;;;;15.15;53.90;97561.91;5047634;28;20420;-77
2023/04/08 09:20:14;;;;;;;19.80;10.73;;;;;;;15.27;54.22;97553.81;5014337;28;20044;-76
2023/04/08 09:22:56;;;;;;;17.23;11.48;;;;;;;15.06;54.78;97561.78;5031351;28;20045;-76
2023/04/08 09:25:26;;;;;;;13.85;10.07;;;;;;;15.20;53.87;97564.22;5047829;28;20032;-77
2023/04/08 09:27:53;;;;;;;24.13;12.95;;;;;;;14.89;54.27;97556.88;5047505;28;20036;-76
2023/04/08 09:30:25;;;;;;;17.67;11.68;;;;;;;14.68;55.12;97561.25;5014414;28;20076;-76
2023/04/08 09:32:54;;;;;;;;;;;;;;;14.82;55.58;97564.59;5014517;28;20037;-77
2023/04/08 09:35:20;;;;;;;23.15;12.15;;;;;;;14.76;56.46;97557.00;5047201;28;20003;-77
2023/04/08 09:37:46;;;;;;;23.27;12.75;;;;;;;15.27;56.51;97572.66;5014284;28;20131;-75
2023/04/08 09:40:14;;;;;;;21.23;12.70;;;;;;;15.56;54.32;97561.31;5014573;28;20586;-76
2023/04/08 09:42:44;;;;;;;20.45;12.13;;;;;;;15.83;53.69;97560.00;5027092;28;20185;-76
2023/04/08 09:45:11;;;;;;;20.65;11.63;;;;;;;16.41;52.28;97564.06;5035111;28;20067;-77
2023/04/08 09:47:55;;;;;;;15.88;10.65;;;;;;;17.21;49.87;97566.00;5051591;28;20458;-77
2023/04/08 09:50:30;;;;;;;24.08;13.07;;;;;;;17.93;48.40;97560.44;5051568;28;20415;-77
2023/04/08 09:53:18;;;;;;;20.70;11.20;;;;;;;17.94;48.41;97547.72;5051554;28;20030;-76
2023/04/08 09:55:50;;;;;;;19.02;11.18;;;;;;;17.38;47.75;97525.81;5018674;28;20106;-75
2023/04/08 09:58:23;;;;;;;15.30;9.95;;;;;;;16.39;48.50;97522.84;5051765;28;20058;-75
2023/04/08 10:00:49;;;;;;;16.35;10.18;;;;;;;16.79;49.08;97542.75;5031896;28;20033;-76
2023/04/08 10:03:47;;;;;;;19.13;11.15;;;;;;;15.98;49.78;97507.47;5052176;28;20044;-76
2023/04/08 10:06:14;;;;;;;21.35;10.60;;;;;;;16.59;49.43;97525.56;5034687;28;20036;-75
2023/04/08 10:08:40;;;;;;;14.27;9.85;;;;;;;17.45;49.79;97541.31;5034501;28;20123;-76
2023/04/08 10:11:06;;;;;;;18.45;10.82;;;;;;;18.14;46.72;97522.41;5033286;28;20194;-75
2023/04/08 10:13:32;;;;;;;19.42;11.30;;;;;;;17.31;46.51;97496.63;5051242;28;20123;-75
2023/04/08 10:16:17;;;;;;;20.48;12.55;;;;;;;15.96;49.78;97496.81;5032406;28;20033;-75
2023/04/08 10:18:44;;;;;;;21.92;12.25;;;;;;;17.17;48.75;97512.34;5033831;28;20029;-76
2023/04/08 10:21:42;;;;;;;17.77;11.90;;;;;;;16.85;48.50;97508.94;5051256;28;20415;-76
2023/04/08 10:24:11;;;;;;;20.75;10.70;;;;;;;17.85;47.13;97523.22;4935973;28;20143;-76
2023/04/08 10:26:44;;;;;;;22.67;15.18;;;;;;;18.40;45.22;97512.69;4967849;28;20426;-76
2023/04/08 10:29:21;;;;;;;16.70;10.75;;;;;;;18.22;45.48;97500.88;5026342;28;20624;-75
2023/04/08 10:31:51;;;;;;;16.25;10.75;;;;;;;19.05;43.75;97509.13;5068976;28;20103;-75
2023/04/08 10:34:17;;;;;;;16.40;10.43;;;;;;;20.95;40.50;97505.19;5051873;28;20028;-74
2023/04/08 10:36:44;;;;;;;15.77;10.73;;;;;;;22.43;38.68;97509.16;5034203;28;20105;-76
2023/04/08 10:39:39;;;;;;;21.52;13.63;;;;;;;23.16;36.94;97497.16;5051179;28;20154;-76
2023/04/08 10:42:07;;;;;;;24.80;10.48;;;;;;;22.29;38.54;97474.41;4978368;28;20050;-76
2023/04/08 10:44:35;;;;;;;15.98;9.70;;;;;;;21.27;39.88;97454.72;5050188;28;20427;-77
2023/04/08 10:47:01;;;;;;;16.25;10.15;;;;;;;22.74;37.63;97474.75;5031212;28;20029;-76
2023/04/08 10:49:33;;;;;;;15.50;9.23;;;;;;;24.40;35.05;97486.34;5049283;28;20365;-76
2023/04/08 10:52:06;;;;;;;14.57;9.02;;;;;;;22.44;35.52;97410.84;5034424;28;20060;-76
2023/04/08 10:54:31;;;;;;;16.80;9.90;;;;;;;20.22;39.03;97397.78;5033977;28;20048;-76
2023/04/08 10:57:00;;;;;;;15.38;9.20;;;;;;;19.40;40.17;97405.38;5050493;28;20028;-76
2023/04/08 10:59:33;;;;;;;14.52;9.48;;;;;;;19.54;40.16;97425.66;5033421;28;20107;-76
2023/04/08 11:01:59;;;;;;;12.70;9.20;;;;;;;19.89;40.83;97440.13;5037323;28;20032;-76
2023/04/08 11:04:28;;;;;;;13.10;8.48;;;;;;;20.55;39.70;97442.38;5050648;28;20033;-76
2023/04/08 11:06:59;;;;;;;16.17;8.10;;;;;;;20.94;38.83;97434.66;5050609;28;20024;-76
2023/04/08 11:09:25;;;;;;;12.32;7.90;;;;;;;20.87;38.88;97430.88;5051266;28;20032;-76
2023/04/08 11:11:51;;;;;;;14.38;8.43;;;;;;;20.84;38.38;97421.16;5034007;28;20044;-76
2023/04/08 11:14:20;;;;;;;11.82;8.75;;;;;;;20.38;39.55;97416.13;5050703;28;20036;-75
2023/04/08 11:16:46;;;;;;;9.68;7.80;;;;;;;20.52;38.93;97416.38;5031335;28;20496;-76
2023/04/08 11:19:24;;;;;;;13.50;8.18;;;;;;;20.09;39.43;97410.09;5050650;28;20047;-76
2023/04/08 11:21:53;;;;;;;12.13;8.20;;;;;;;19.30;41.23;97390.97;5034729;28;20044;-76
2023/04/08 11:24:18;;;;;;;13.32;8.43;;;;;;;19.30;40.60;97385.53;5031020;28;20029;-77